sensor_id;sensor_type;location;lat;lon;timestamp;P1;durP1;ratioP1;P2;durP2;ratioP2
65753;SDS011;52488;47.502;18.940;2022-08-02T00:01:02;2.47;;;2.28;;
65753;SDS011;52488;47.502;18.940;2022-08-02T00:02:09;3.22;;;2.40;;
65753;SDS011;52488;47.502;18.940;2022-08-02T00:03:14;2.83;;;2.62;;
65753;SDS011;52488;47.502;18.940;2022-08-02T00:04:18;4.45;;;2.83;;
65753;SDS011;52488;47.502;18.940;2022-08-02T00:05:21;2.97;;;2.55;;
65753;SDS011;52488;47.502;18.940;2022-08-02T00:06:24;5.78;;;2.72;;
65753;SDS011;52488;47.502;18.940;2022-08-02T00:07:27;5.50;;;2.72;;
65753;SDS011;52488;47.502;18.940;2022-08-02T00:08:30;3.05;;;2.72;;
65753;SDS011;52488;47.502;18.940;2022-08-02T00:09:36;2.60;;;2.40;;
65753;SDS011;52488;47.502;18.940;2022-08-02T00:10:38;3.20;;;2.90;;
65753;SDS011;52488;47.502;18.940;2022-08-02T00:11:44;4.45;;;2.50;;
65753;SDS011;52488;47.502;18.940;2022-08-02T00:12:47;2.80;;;2.50;;
65753;SDS011;52488;47.502;18.940;2022-08-02T00:13:50;3.30;;;2.90;;
65753;SDS011;52488;47.502;18.940;2022-08-02T00:14:53;3.15;;;2.60;;
65753;SDS011;52488;47.502;18.940;2022-08-02T00:15:56;4.55;;;2.67;;
65753;SDS011;52488;47.502;18.940;2022-08-02T00:16:59;3.92;;;2.60;;
65753;SDS011;52488;47.502;18.940;2022-08-02T00:18:02;5.85;;;2.85;;
65753;SDS011;52488;47.502;18.940;2022-08-02T00:19:05;4.10;;;2.60;;
65753;SDS011;52488;47.502;18.940;2022-08-02T00:20:10;5.68;;;2.70;;
65753;SDS011;52488;47.502;18.940;2022-08-02T00:21:14;2.80;;;2.60;;
65753;SDS011;52488;47.502;18.940;2022-08-02T00:22:17;2.90;;;2.53;;
65753;SDS011;52488;47.502;18.940;2022-08-02T00:23:20;2.78;;;2.55;;
65753;SDS011;52488;47.502;18.940;2022-08-02T00:24:23;3.97;;;2.65;;
65753;SDS011;52488;47.502;18.940;2022-08-02T00:25:32;3.10;;;2.80;;
65753;SDS011;52488;47.502;18.940;2022-08-02T00:26:35;4.65;;;2.97;;
65753;SDS011;52488;47.502;18.940;2022-08-02T00:27:38;3.37;;;2.45;;
65753;SDS011;52488;47.502;18.940;2022-08-02T00:28:41;2.83;;;2.62;;
65753;SDS011;52488;47.502;18.940;2022-08-02T00:29:47;2.80;;;2.60;;
65753;SDS011;52488;47.502;18.940;2022-08-02T00:30:57;2.65;;;2.45;;
65753;SDS011;52488;47.502;18.940;2022-08-02T00:32:01;3.85;;;2.67;;
65753;SDS011;52488;47.502;18.940;2022-08-02T00:33:04;3.10;;;2.60;;
65753;SDS011;52488;47.502;18.940;2022-08-02T00:34:07;3.25;;;2.75;;
65753;SDS011;52488;47.502;18.940;2022-08-02T00:35:33;2.85;;;2.62;;
65753;SDS011;52488;47.502;18.940;2022-08-02T00:36:41;3.62;;;2.78;;
65753;SDS011;52488;47.502;18.940;2022-08-02T00:37:44;3.22;;;2.58;;
65753;SDS011;52488;47.502;18.940;2022-08-02T00:38:47;3.10;;;2.80;;
65753;SDS011;52488;47.502;18.940;2022-08-02T00:39:50;4.95;;;2.75;;
65753;SDS011;52488;47.502;18.940;2022-08-02T00:40:53;2.97;;;2.47;;
65753;SDS011;52488;47.502;18.940;2022-08-02T00:41:59;2.55;;;2.30;;
65753;SDS011;52488;47.502;18.940;2022-08-02T00:43:08;3.70;;;2.92;;
65753;SDS011;52488;47.502;18.940;2022-08-02T00:44:13;5.40;;;3.03;;
65753;SDS011;52488;47.502;18.940;2022-08-02T00:45:17;2.97;;;2.70;;
65753;SDS011;52488;47.502;18.940;2022-08-02T00:46:19;2.75;;;2.55;;
65753;SDS011;52488;47.502;18.940;2022-08-02T00:47:22;3.10;;;2.58;;
65753;SDS011;52488;47.502;18.940;2022-08-02T00:48:26;3.15;;;2.90;;
65753;SDS011;52488;47.502;18.940;2022-08-02T00:49:31;4.05;;;3.00;;
65753;SDS011;52488;47.502;18.940;2022-08-02T00:50:34;8.45;;;2.97;;
65753;SDS011;52488;47.502;18.940;2022-08-02T00:51:38;3.08;;;2.87;;
65753;SDS011;52488;47.502;18.940;2022-08-02T00:52:41;2.83;;;2.60;;
65753;SDS011;52488;47.502;18.940;2022-08-02T00:53:44;3.97;;;2.78;;
65753;SDS011;52488;47.502;18.940;2022-08-02T00:54:47;6.20;;;2.90;;
65753;SDS011;52488;47.502;18.940;2022-08-02T00:55:49;3.05;;;2.75;;
65753;SDS011;52488;47.502;18.940;2022-08-02T00:56:53;4.65;;;2.80;;
65753;SDS011;52488;47.502;18.940;2022-08-02T00:57:57;3.78;;;2.70;;
65753;SDS011;52488;47.502;18.940;2022-08-02T00:59:02;3.83;;;3.08;;
65753;SDS011;52488;47.502;18.940;2022-08-02T01:00:06;3.40;;;2.92;;
65753;SDS011;52488;47.502;18.940;2022-08-02T01:01:09;4.43;;;3.00;;
65753;SDS011;52488;47.502;18.940;2022-08-02T01:02:12;3.05;;;2.62;;
65753;SDS011;52488;47.502;18.940;2022-08-02T01:03:16;3.72;;;3.00;;
65753;SDS011;52488;47.502;18.940;2022-08-02T01:04:19;5.50;;;3.40;;
65753;SDS011;52488;47.502;18.940;2022-08-02T01:05:32;5.25;;;2.62;;
65753;SDS011;52488;47.502;18.940;2022-08-02T01:06:55;4.85;;;2.83;;
65753;SDS011;52488;47.502;18.940;2022-08-02T01:07:58;3.15;;;2.75;;
65753;SDS011;52488;47.502;18.940;2022-08-02T01:09:02;3.37;;;3.08;;
65753;SDS011;52488;47.502;18.940;2022-08-02T01:10:07;2.83;;;2.62;;
65753;SDS011;52488;47.502;18.940;2022-08-02T01:11:10;5.40;;;3.10;;
65753;SDS011;52488;47.502;18.940;2022-08-02T01:12:13;3.90;;;2.80;;
65753;SDS011;52488;47.502;18.940;2022-08-02T01:13:17;3.37;;;2.90;;
65753;SDS011;52488;47.502;18.940;2022-08-02T01:14:20;3.92;;;3.35;;
65753;SDS011;52488;47.502;18.940;2022-08-02T01:15:25;6.72;;;2.85;;
65753;SDS011;52488;47.502;18.940;2022-08-02T01:16:55;3.40;;;3.10;;
65753;SDS011;52488;47.502;18.940;2022-08-02T01:18:27;3.25;;;2.95;;
65753;SDS011;52488;47.502;18.940;2022-08-02T01:21:02;3.58;;;2.97;;
65753;SDS011;52488;47.502;18.940;2022-08-02T01:25:44;3.47;;;2.85;;
65753;SDS011;52488;47.502;18.940;2022-08-02T01:26:54;3.20;;;2.90;;
65753;SDS011;52488;47.502;18.940;2022-08-02T01:28:17;2.83;;;2.62;;
65753;SDS011;52488;47.502;18.940;2022-08-02T01:29:47;4.53;;;3.03;;
65753;SDS011;52488;47.502;18.940;2022-08-02T01:30:56;5.60;;;3.08;;
65753;SDS011;52488;47.502;18.940;2022-08-02T01:32:10;3.67;;;3.00;;
65753;SDS011;52488;47.502;18.940;2022-08-02T01:33:16;3.35;;;3.05;;
65753;SDS011;52488;47.502;18.940;2022-08-02T01:34:33;3.67;;;3.03;;
65753;SDS011;52488;47.502;18.940;2022-08-02T01:35:40;4.40;;;2.70;;
65753;SDS011;52488;47.502;18.940;2022-08-02T01:37:01;3.22;;;2.92;;
65753;SDS011;52488;47.502;18.940;2022-08-02T01:38:13;4.57;;;3.12;;
65753;SDS011;52488;47.502;18.940;2022-08-02T01:39:20;3.50;;;3.15;;
65753;SDS011;52488;47.502;18.940;2022-08-02T01:40:33;4.28;;;3.12;;
65753;SDS011;52488;47.502;18.940;2022-08-02T01:41:39;6.53;;;3.45;;
65753;SDS011;52488;47.502;18.940;2022-08-02T01:42:45;4.65;;;3.58;;
65753;SDS011;52488;47.502;18.940;2022-08-02T01:43:50;4.35;;;3.25;;
65753;SDS011;52488;47.502;18.940;2022-08-02T01:44:57;5.55;;;3.22;;
65753;SDS011;52488;47.502;18.940;2022-08-02T01:46:04;3.67;;;3.10;;
65753;SDS011;52488;47.502;18.940;2022-08-02T01:47:10;5.72;;;3.33;;
65753;SDS011;52488;47.502;18.940;2022-08-02T01:48:21;3.03;;;2.83;;
65753;SDS011;52488;47.502;18.940;2022-08-02T01:49:27;4.10;;;2.90;;
65753;SDS011;52488;47.502;18.940;2022-08-02T01:50:33;5.65;;;3.30;;
65753;SDS011;52488;47.502;18.940;2022-08-02T01:51:39;4.95;;;3.20;;
65753;SDS011;52488;47.502;18.940;2022-08-02T01:53:06;3.70;;;2.87;;
65753;SDS011;52488;47.502;18.940;2022-08-02T01:54:13;3.95;;;3.10;;
65753;SDS011;52488;47.502;18.940;2022-08-02T01:55:20;3.90;;;3.28;;
65753;SDS011;52488;47.502;18.940;2022-08-02T01:56:36;4.90;;;3.22;;
65753;SDS011;52488;47.502;18.940;2022-08-02T01:57:47;4.32;;;3.20;;
65753;SDS011;52488;47.502;18.940;2022-08-02T01:58:52;3.70;;;2.90;;
65753;SDS011;52488;47.502;18.940;2022-08-02T01:59:56;5.10;;;3.53;;
65753;SDS011;52488;47.502;18.940;2022-08-02T02:01:03;3.58;;;3.28;;
65753;SDS011;52488;47.502;18.940;2022-08-02T02:02:09;3.00;;;2.70;;
65753;SDS011;52488;47.502;18.940;2022-08-02T02:03:19;3.42;;;3.20;;
65753;SDS011;52488;47.502;18.940;2022-08-02T02:04:23;3.50;;;3.20;;
65753;SDS011;52488;47.502;18.940;2022-08-02T02:05:28;3.37;;;3.08;;
65753;SDS011;52488;47.502;18.940;2022-08-02T02:06:36;3.37;;;3.08;;
65753;SDS011;52488;47.502;18.940;2022-08-02T02:07:41;3.62;;;3.08;;
65753;SDS011;52488;47.502;18.940;2022-08-02T02:08:47;3.87;;;3.58;;
65753;SDS011;52488;47.502;18.940;2022-08-02T02:09:52;3.53;;;3.22;;
65753;SDS011;52488;47.502;18.940;2022-08-02T02:10:56;6.07;;;3.28;;
65753;SDS011;52488;47.502;18.940;2022-08-02T02:12:21;3.40;;;3.00;;
65753;SDS011;52488;47.502;18.940;2022-08-02T02:13:25;4.03;;;2.92;;
65753;SDS011;52488;47.502;18.940;2022-08-02T02:14:34;4.45;;;3.62;;
65753;SDS011;52488;47.502;18.940;2022-08-02T02:15:39;4.75;;;3.28;;
65753;SDS011;52488;47.502;18.940;2022-08-02T02:16:47;5.68;;;3.72;;
65753;SDS011;52488;47.502;18.940;2022-08-02T02:17:51;3.80;;;3.40;;
65753;SDS011;52488;47.502;18.940;2022-08-02T02:19:15;5.07;;;3.33;;
65753;SDS011;52488;47.502;18.940;2022-08-02T02:20:22;4.55;;;3.40;;
65753;SDS011;52488;47.502;18.940;2022-08-02T02:21:26;3.45;;;3.15;;
65753;SDS011;52488;47.502;18.940;2022-08-02T02:22:32;3.20;;;2.90;;
65753;SDS011;52488;47.502;18.940;2022-08-02T02:23:36;4.97;;;3.37;;
65753;SDS011;52488;47.502;18.940;2022-08-02T02:24:38;4.93;;;3.72;;
65753;SDS011;52488;47.502;18.940;2022-08-02T02:25:42;4.68;;;3.70;;
65753;SDS011;52488;47.502;18.940;2022-08-02T02:26:48;7.97;;;3.50;;
65753;SDS011;52488;47.502;18.940;2022-08-02T02:29:03;5.90;;;3.62;;
65753;SDS011;52488;47.502;18.940;2022-08-02T02:30:07;5.90;;;3.75;;
65753;SDS011;52488;47.502;18.940;2022-08-02T02:31:15;4.28;;;3.47;;
65753;SDS011;52488;47.502;18.940;2022-08-02T02:32:22;4.75;;;3.75;;
65753;SDS011;52488;47.502;18.940;2022-08-02T02:33:29;4.70;;;3.83;;
65753;SDS011;52488;47.502;18.940;2022-08-02T02:34:36;6.87;;;3.65;;
65753;SDS011;52488;47.502;18.940;2022-08-02T02:35:42;4.53;;;3.75;;
65753;SDS011;52488;47.502;18.940;2022-08-02T02:36:49;4.25;;;3.85;;
65753;SDS011;52488;47.502;18.940;2022-08-02T02:37:53;5.50;;;3.97;;
65753;SDS011;52488;47.502;18.940;2022-08-02T02:39:02;5.35;;;3.30;;
65753;SDS011;52488;47.502;18.940;2022-08-02T02:40:15;3.85;;;3.28;;
65753;SDS011;52488;47.502;18.940;2022-08-02T02:41:19;5.70;;;3.78;;
65753;SDS011;52488;47.502;18.940;2022-08-02T02:42:26;3.95;;;3.42;;
65753;SDS011;52488;47.502;18.940;2022-08-02T02:43:32;5.75;;;3.90;;
65753;SDS011;52488;47.502;18.940;2022-08-02T02:44:40;4.20;;;3.12;;
65753;SDS011;52488;47.502;18.940;2022-08-02T02:45:44;4.22;;;3.60;;
65753;SDS011;52488;47.502;18.940;2022-08-02T02:46:49;6.20;;;3.40;;
65753;SDS011;52488;47.502;18.940;2022-08-02T02:47:55;3.47;;;3.17;;
65753;SDS011;52488;47.502;18.940;2022-08-02T02:48:58;7.03;;;3.60;;
65753;SDS011;52488;47.502;18.940;2022-08-02T02:50:02;4.45;;;3.40;;
65753;SDS011;52488;47.502;18.940;2022-08-02T02:51:06;3.97;;;3.40;;
65753;SDS011;52488;47.502;18.940;2022-08-02T02:52:15;4.10;;;3.15;;
65753;SDS011;52488;47.502;18.940;2022-08-02T02:53:19;4.82;;;3.20;;
65753;SDS011;52488;47.502;18.940;2022-08-02T02:54:23;3.53;;;3.22;;
65753;SDS011;52488;47.502;18.940;2022-08-02T02:55:36;3.47;;;2.78;;
65753;SDS011;52488;47.502;18.940;2022-08-02T02:57:03;3.37;;;3.00;;
65753;SDS011;52488;47.502;18.940;2022-08-02T02:58:07;3.67;;;3.20;;
65753;SDS011;52488;47.502;18.940;2022-08-02T02:59:15;4.65;;;3.40;;
65753;SDS011;52488;47.502;18.940;2022-08-02T03:00:19;5.00;;;3.17;;
65753;SDS011;52488;47.502;18.940;2022-08-02T03:01:42;4.55;;;3.17;;
65753;SDS011;52488;47.502;18.940;2022-08-02T03:02:59;3.50;;;3.20;;
65753;SDS011;52488;47.502;18.940;2022-08-02T03:04:03;3.85;;;3.50;;
65753;SDS011;52488;47.502;18.940;2022-08-02T03:05:08;3.33;;;3.03;;
65753;SDS011;52488;47.502;18.940;2022-08-02T03:06:12;6.60;;;3.22;;
65753;SDS011;52488;47.502;18.940;2022-08-02T03:07:18;4.50;;;3.58;;
65753;SDS011;52488;47.502;18.940;2022-08-02T03:08:21;3.87;;;3.47;;
65753;SDS011;52488;47.502;18.940;2022-08-02T03:09:24;4.30;;;3.70;;
65753;SDS011;52488;47.502;18.940;2022-08-02T03:10:27;3.83;;;3.53;;
65753;SDS011;52488;47.502;18.940;2022-08-02T03:11:30;3.95;;;3.47;;
65753;SDS011;52488;47.502;18.940;2022-08-02T03:12:34;3.12;;;2.87;;
65753;SDS011;52488;47.502;18.940;2022-08-02T03:13:38;3.40;;;3.10;;
65753;SDS011;52488;47.502;18.940;2022-08-02T03:14:44;3.72;;;3.40;;
65753;SDS011;52488;47.502;18.940;2022-08-02T03:15:50;3.50;;;3.20;;
65753;SDS011;52488;47.502;18.940;2022-08-02T03:16:55;3.90;;;3.30;;
65753;SDS011;52488;47.502;18.940;2022-08-02T03:17:58;4.53;;;3.30;;
65753;SDS011;52488;47.502;18.940;2022-08-02T03:19:01;6.05;;;3.40;;
65753;SDS011;52488;47.502;18.940;2022-08-02T03:20:09;4.60;;;3.05;;
65753;SDS011;52488;47.502;18.940;2022-08-02T03:21:16;4.87;;;3.42;;
65753;SDS011;52488;47.502;18.940;2022-08-02T03:22:19;5.70;;;3.28;;
65753;SDS011;52488;47.502;18.940;2022-08-02T03:23:21;4.93;;;3.50;;
65753;SDS011;52488;47.502;18.940;2022-08-02T03:24:24;3.60;;;3.30;;
65753;SDS011;52488;47.502;18.940;2022-08-02T03:25:29;4.05;;;3.65;;
65753;SDS011;52488;47.502;18.940;2022-08-02T03:26:32;4.85;;;3.35;;
65753;SDS011;52488;47.502;18.940;2022-08-02T03:27:36;3.85;;;3.45;;
65753;SDS011;52488;47.502;18.940;2022-08-02T03:28:39;4.65;;;3.53;;
65753;SDS011;52488;47.502;18.940;2022-08-02T03:29:42;4.30;;;3.58;;
65753;SDS011;52488;47.502;18.940;2022-08-02T03:30:45;5.45;;;3.60;;
65753;SDS011;52488;47.502;18.940;2022-08-02T03:31:48;3.58;;;3.28;;
65753;SDS011;52488;47.502;18.940;2022-08-02T03:32:51;5.45;;;3.78;;
65753;SDS011;52488;47.502;18.940;2022-08-02T03:33:54;3.53;;;3.22;;
65753;SDS011;52488;47.502;18.940;2022-08-02T03:34:59;6.12;;;3.40;;
65753;SDS011;52488;47.502;18.940;2022-08-02T03:36:10;3.37;;;3.05;;
65753;SDS011;52488;47.502;18.940;2022-08-02T03:37:15;3.70;;;3.40;;
65753;SDS011;52488;47.502;18.940;2022-08-02T03:38:18;4.03;;;3.30;;
65753;SDS011;52488;47.502;18.940;2022-08-02T03:39:30;4.47;;;3.75;;
65753;SDS011;52488;47.502;18.940;2022-08-02T03:40:35;6.47;;;3.47;;
65753;SDS011;52488;47.502;18.940;2022-08-02T03:41:39;4.37;;;3.25;;
65753;SDS011;52488;47.502;18.940;2022-08-02T03:42:43;4.50;;;3.40;;
65753;SDS011;52488;47.502;18.940;2022-08-02T03:43:46;5.75;;;3.78;;
65753;SDS011;52488;47.502;18.940;2022-08-02T03:44:50;3.75;;;3.08;;
65753;SDS011;52488;47.502;18.940;2022-08-02T03:45:55;4.40;;;3.28;;
65753;SDS011;52488;47.502;18.940;2022-08-02T03:47:00;4.15;;;3.75;;
65753;SDS011;52488;47.502;18.940;2022-08-02T03:48:03;3.60;;;3.08;;
65753;SDS011;52488;47.502;18.940;2022-08-02T03:49:27;3.78;;;3.47;;
65753;SDS011;52488;47.502;18.940;2022-08-02T03:50:33;4.37;;;3.20;;
65753;SDS011;52488;47.502;18.940;2022-08-02T03:51:38;3.95;;;3.55;;
65753;SDS011;52488;47.502;18.940;2022-08-02T03:52:42;4.62;;;3.92;;
65753;SDS011;52488;47.502;18.940;2022-08-02T03:53:47;5.30;;;4.05;;
65753;SDS011;52488;47.502;18.940;2022-08-02T03:54:50;4.37;;;3.45;;
65753;SDS011;52488;47.502;18.940;2022-08-02T03:55:53;4.15;;;3.75;;
65753;SDS011;52488;47.502;18.940;2022-08-02T03:56:57;4.15;;;3.75;;
65753;SDS011;52488;47.502;18.940;2022-08-02T03:58:00;4.00;;;3.70;;
65753;SDS011;52488;47.502;18.940;2022-08-02T03:59:10;4.07;;;3.67;;
65753;SDS011;52488;47.502;18.940;2022-08-02T04:00:19;4.47;;;3.58;;
65753;SDS011;52488;47.502;18.940;2022-08-02T04:01:27;6.70;;;3.50;;
65753;SDS011;52488;47.502;18.940;2022-08-02T04:02:30;4.62;;;3.40;;
65753;SDS011;52488;47.502;18.940;2022-08-02T04:03:33;4.18;;;3.60;;
65753;SDS011;52488;47.502;18.940;2022-08-02T04:04:36;4.53;;;3.50;;
65753;SDS011;52488;47.502;18.940;2022-08-02T04:05:39;6.97;;;3.72;;
65753;SDS011;52488;47.502;18.940;2022-08-02T04:07:03;4.60;;;3.60;;
65753;SDS011;52488;47.502;18.940;2022-08-02T04:08:09;3.72;;;3.42;;
65753;SDS011;52488;47.502;18.940;2022-08-02T04:09:32;3.83;;;3.53;;
65753;SDS011;52488;47.502;18.940;2022-08-02T04:10:35;3.80;;;3.50;;
65753;SDS011;52488;47.502;18.940;2022-08-02T04:11:57;4.53;;;3.28;;
65753;SDS011;52488;47.502;18.940;2022-08-02T04:13:01;3.90;;;3.60;;
65753;SDS011;52488;47.502;18.940;2022-08-02T04:14:07;4.22;;;3.87;;
65753;SDS011;52488;47.502;18.940;2022-08-02T04:15:12;3.80;;;3.35;;
65753;SDS011;52488;47.502;18.940;2022-08-02T04:16:19;4.43;;;3.75;;
65753;SDS011;52488;47.502;18.940;2022-08-02T04:17:24;3.75;;;3.42;;
65753;SDS011;52488;47.502;18.940;2022-08-02T04:18:37;3.78;;;3.47;;
65753;SDS011;52488;47.502;18.940;2022-08-02T04:19:43;4.85;;;3.45;;
65753;SDS011;52488;47.502;18.940;2022-08-02T04:20:53;6.07;;;3.80;;
65753;SDS011;52488;47.502;18.940;2022-08-02T04:22:01;3.55;;;3.25;;
65753;SDS011;52488;47.502;18.940;2022-08-02T04:23:08;4.53;;;3.50;;
65753;SDS011;52488;47.502;18.940;2022-08-02T04:24:16;3.65;;;3.30;;
65753;SDS011;52488;47.502;18.940;2022-08-02T04:25:25;5.60;;;3.90;;
65753;SDS011;52488;47.502;18.940;2022-08-02T04:26:41;5.15;;;3.58;;
65753;SDS011;52488;47.502;18.940;2022-08-02T04:27:50;5.03;;;3.30;;
65753;SDS011;52488;47.502;18.940;2022-08-02T04:29:14;5.00;;;3.47;;
65753;SDS011;52488;47.502;18.940;2022-08-02T04:30:19;3.80;;;3.33;;
65753;SDS011;52488;47.502;18.940;2022-08-02T04:31:23;3.85;;;3.28;;
65753;SDS011;52488;47.502;18.940;2022-08-02T04:32:30;3.70;;;3.40;;
65753;SDS011;52488;47.502;18.940;2022-08-02T04:33:33;4.22;;;3.40;;
65753;SDS011;52488;47.502;18.940;2022-08-02T04:34:38;3.20;;;2.90;;
65753;SDS011;52488;47.502;18.940;2022-08-02T04:35:41;3.87;;;3.30;;
65753;SDS011;52488;47.502;18.940;2022-08-02T04:36:45;3.62;;;3.33;;
65753;SDS011;52488;47.502;18.940;2022-08-02T04:37:48;3.90;;;3.60;;
65753;SDS011;52488;47.502;18.940;2022-08-02T04:39:11;3.60;;;3.30;;
65753;SDS011;52488;47.502;18.940;2022-08-02T04:40:16;4.30;;;3.17;;
65753;SDS011;52488;47.502;18.940;2022-08-02T04:41:19;4.95;;;3.17;;
65753;SDS011;52488;47.502;18.940;2022-08-02T04:42:23;4.12;;;3.37;;
65753;SDS011;52488;47.502;18.940;2022-08-02T04:43:27;4.82;;;3.85;;
65753;SDS011;52488;47.502;18.940;2022-08-02T04:44:30;6.03;;;3.60;;
65753;SDS011;52488;47.502;18.940;2022-08-02T04:45:33;4.62;;;3.40;;
65753;SDS011;52488;47.502;18.940;2022-08-02T04:46:37;4.47;;;3.65;;
65753;SDS011;52488;47.502;18.940;2022-08-02T04:47:41;4.78;;;3.35;;
65753;SDS011;52488;47.502;18.940;2022-08-02T04:49:04;4.15;;;3.30;;
65753;SDS011;52488;47.502;18.940;2022-08-02T04:50:08;3.40;;;3.10;;
65753;SDS011;52488;47.502;18.940;2022-08-02T04:51:11;5.53;;;3.42;;
65753;SDS011;52488;47.502;18.940;2022-08-02T04:52:14;6.57;;;3.25;;
65753;SDS011;52488;47.502;18.940;2022-08-02T04:53:17;3.22;;;2.92;;
65753;SDS011;52488;47.502;18.940;2022-08-02T04:54:21;3.53;;;3.22;;
65753;SDS011;52488;47.502;18.940;2022-08-02T04:55:24;3.87;;;3.45;;
65753;SDS011;52488;47.502;18.940;2022-08-02T04:56:30;3.53;;;3.22;;
65753;SDS011;52488;47.502;18.940;2022-08-02T04:57:34;3.17;;;2.80;;
65753;SDS011;52488;47.502;18.940;2022-08-02T04:58:55;3.75;;;3.10;;
65753;SDS011;52488;47.502;18.940;2022-08-02T04:59:58;3.72;;;3.10;;
65753;SDS011;52488;47.502;18.940;2022-08-02T05:01:01;4.18;;;3.25;;
65753;SDS011;52488;47.502;18.940;2022-08-02T05:02:05;3.55;;;3.00;;
65753;SDS011;52488;47.502;18.940;2022-08-02T05:03:08;4.28;;;3.25;;
65753;SDS011;52488;47.502;18.940;2022-08-02T05:04:11;3.50;;;2.85;;
65753;SDS011;52488;47.502;18.940;2022-08-02T05:05:14;3.58;;;3.03;;
65753;SDS011;52488;47.502;18.940;2022-08-02T05:06:18;6.12;;;3.05;;
65753;SDS011;52488;47.502;18.940;2022-08-02T05:07:24;3.80;;;2.90;;
65753;SDS011;52488;47.502;18.940;2022-08-02T05:08:27;4.72;;;3.28;;
65753;SDS011;52488;47.502;18.940;2022-08-02T05:09:31;4.90;;;3.10;;
65753;SDS011;52488;47.502;18.940;2022-08-02T05:10:34;4.82;;;3.15;;
65753;SDS011;52488;47.502;18.940;2022-08-02T05:11:37;3.37;;;3.08;;
65753;SDS011;52488;47.502;18.940;2022-08-02T05:12:40;3.08;;;2.87;;
65753;SDS011;52488;47.502;18.940;2022-08-02T05:13:43;3.30;;;2.92;;
65753;SDS011;52488;47.502;18.940;2022-08-02T05:15:00;3.35;;;3.05;;
65753;SDS011;52488;47.502;18.940;2022-08-02T05:16:04;4.87;;;2.95;;
65753;SDS011;52488;47.502;18.940;2022-08-02T05:17:07;4.78;;;2.97;;
65753;SDS011;52488;47.502;18.940;2022-08-02T05:18:10;4.22;;;3.42;;
65753;SDS011;52488;47.502;18.940;2022-08-02T05:19:14;3.28;;;2.95;;
65753;SDS011;52488;47.502;18.940;2022-08-02T05:20:17;3.20;;;3.00;;
65753;SDS011;52488;47.502;18.940;2022-08-02T05:21:21;5.12;;;3.15;;
65753;SDS011;52488;47.502;18.940;2022-08-02T05:22:24;4.53;;;3.30;;
65753;SDS011;52488;47.502;18.940;2022-08-02T05:23:27;4.03;;;2.95;;
65753;SDS011;52488;47.502;18.940;2022-08-02T05:24:30;3.92;;;3.05;;
65753;SDS011;52488;47.502;18.940;2022-08-02T05:25:33;3.83;;;3.03;;
65753;SDS011;52488;47.502;18.940;2022-08-02T05:26:36;3.15;;;2.85;;
65753;SDS011;52488;47.502;18.940;2022-08-02T05:27:39;2.83;;;2.62;;
65753;SDS011;52488;47.502;18.940;2022-08-02T05:28:43;2.92;;;2.65;;
65753;SDS011;52488;47.502;18.940;2022-08-02T05:29:45;3.58;;;3.20;;
65753;SDS011;52488;47.502;18.940;2022-08-02T05:30:55;4.87;;;2.75;;
65753;SDS011;52488;47.502;18.940;2022-08-02T05:31:58;3.25;;;2.80;;
65753;SDS011;52488;47.502;18.940;2022-08-02T05:33:01;4.45;;;3.12;;
65753;SDS011;52488;47.502;18.940;2022-08-02T05:34:06;2.90;;;2.70;;
65753;SDS011;52488;47.502;18.940;2022-08-02T05:35:16;4.78;;;3.17;;
65753;SDS011;52488;47.502;18.940;2022-08-02T05:36:20;2.80;;;2.60;;
65753;SDS011;52488;47.502;18.940;2022-08-02T05:37:27;4.18;;;2.70;;
65753;SDS011;52488;47.502;18.940;2022-08-02T05:38:34;3.22;;;2.83;;
65753;SDS011;52488;47.502;18.940;2022-08-02T05:39:38;5.45;;;3.12;;
65753;SDS011;52488;47.502;18.940;2022-08-02T05:40:57;3.83;;;3.05;;
65753;SDS011;52488;47.502;18.940;2022-08-02T05:42:00;4.00;;;2.72;;
65753;SDS011;52488;47.502;18.940;2022-08-02T05:43:10;5.40;;;2.70;;
65753;SDS011;52488;47.502;18.940;2022-08-02T05:44:22;3.10;;;2.80;;
65753;SDS011;52488;47.502;18.940;2022-08-02T05:45:25;2.67;;;2.40;;
65753;SDS011;52488;47.502;18.940;2022-08-02T05:46:28;3.10;;;2.60;;
65753;SDS011;52488;47.502;18.940;2022-08-02T05:47:31;4.45;;;2.53;;
65753;SDS011;52488;47.502;18.940;2022-08-02T05:48:34;2.50;;;2.30;;
65753;SDS011;52488;47.502;18.940;2022-08-02T05:49:38;2.80;;;2.50;;
65753;SDS011;52488;47.502;18.940;2022-08-02T05:50:43;4.15;;;2.60;;
65753;SDS011;52488;47.502;18.940;2022-08-02T05:56:44;2.67;;;2.42;;
65753;SDS011;52488;47.502;18.940;2022-08-02T05:59:25;3.25;;;2.40;;
65753;SDS011;52488;47.502;18.940;2022-08-02T06:00:36;3.80;;;2.40;;
65753;SDS011;52488;47.502;18.940;2022-08-02T06:01:42;6.22;;;2.67;;
65753;SDS011;52488;47.502;18.940;2022-08-02T06:04:30;4.37;;;2.67;;
65753;SDS011;52488;47.502;18.940;2022-08-02T06:06:04;4.45;;;2.40;;
65753;SDS011;52488;47.502;18.940;2022-08-02T06:07:14;2.47;;;2.28;;
65753;SDS011;52488;47.502;18.940;2022-08-02T06:08:26;3.67;;;2.40;;
65753;SDS011;52488;47.502;18.940;2022-08-02T06:09:35;2.67;;;2.08;;
65753;SDS011;52488;47.502;18.940;2022-08-02T06:10:40;2.85;;;2.33;;
65753;SDS011;52488;47.502;18.940;2022-08-02T06:11:49;4.62;;;2.50;;
65753;SDS011;52488;47.502;18.940;2022-08-02T06:13:08;4.28;;;2.30;;
65753;SDS011;52488;47.502;18.940;2022-08-02T06:15:19;2.65;;;2.45;;
65753;SDS011;52488;47.502;18.940;2022-08-02T06:16:22;3.47;;;2.40;;
65753;SDS011;52488;47.502;18.940;2022-08-02T06:17:38;3.97;;;2.65;;
65753;SDS011;52488;47.502;18.940;2022-08-02T06:18:46;2.60;;;2.40;;
65753;SDS011;52488;47.502;18.940;2022-08-02T06:19:52;2.78;;;2.37;;
65753;SDS011;52488;47.502;18.940;2022-08-02T06:21:05;2.70;;;2.50;;
65753;SDS011;52488;47.502;18.940;2022-08-02T06:22:30;2.87;;;2.55;;
65753;SDS011;52488;47.502;18.940;2022-08-02T06:23:39;4.47;;;2.60;;
65753;SDS011;52488;47.502;18.940;2022-08-02T06:26:03;3.00;;;2.28;;
65753;SDS011;52488;47.502;18.940;2022-08-02T06:27:11;2.92;;;2.50;;
65753;SDS011;52488;47.502;18.940;2022-08-02T06:28:15;5.68;;;2.22;;
65753;SDS011;52488;47.502;18.940;2022-08-02T06:29:20;2.75;;;2.35;;
65753;SDS011;52488;47.502;18.940;2022-08-02T06:30:24;2.20;;;2.00;;
65753;SDS011;52488;47.502;18.940;2022-08-02T06:31:27;4.03;;;2.42;;
65753;SDS011;52488;47.502;18.940;2022-08-02T06:32:31;4.37;;;2.35;;
65753;SDS011;52488;47.502;18.940;2022-08-02T06:33:37;2.78;;;2.35;;
65753;SDS011;52488;47.502;18.940;2022-08-02T06:34:40;4.12;;;2.58;;
65753;SDS011;52488;47.502;18.940;2022-08-02T06:36:58;2.70;;;2.37;;
65753;SDS011;52488;47.502;18.940;2022-08-02T06:38:20;2.72;;;2.53;;
65753;SDS011;52488;47.502;18.940;2022-08-02T06:39:45;5.25;;;2.50;;
65753;SDS011;52488;47.502;18.940;2022-08-02T06:40:54;3.12;;;2.30;;
65753;SDS011;52488;47.502;18.940;2022-08-02T06:42:05;2.62;;;2.30;;
65753;SDS011;52488;47.502;18.940;2022-08-02T06:44:24;2.95;;;2.70;;
65753;SDS011;52488;47.502;18.940;2022-08-02T06:45:47;8.23;;;2.85;;
65753;SDS011;52488;47.502;18.940;2022-08-02T06:46:50;2.60;;;2.40;;
65753;SDS011;52488;47.502;18.940;2022-08-02T06:48:13;2.30;;;2.10;;
65753;SDS011;52488;47.502;18.940;2022-08-02T06:49:17;4.47;;;2.42;;
65753;SDS011;52488;47.502;18.940;2022-08-02T06:50:20;4.93;;;2.60;;
65753;SDS011;52488;47.502;18.940;2022-08-02T06:51:24;4.30;;;2.72;;
65753;SDS011;52488;47.502;18.940;2022-08-02T06:52:27;2.35;;;2.15;;
65753;SDS011;52488;47.502;18.940;2022-08-02T06:53:32;3.05;;;2.10;;
65753;SDS011;52488;47.502;18.940;2022-08-02T06:54:36;6.97;;;2.33;;
65753;SDS011;52488;47.502;18.940;2022-08-02T06:55:40;4.28;;;2.10;;